createdAt,value
2023-01-07T00:02:20.092Z,1.40
2023-01-07T00:04:46.427Z,1.45
2023-01-07T00:07:12.760Z,1.52
2023-01-07T00:09:39.084Z,1.40
2023-01-07T00:12:05.449Z,1.20
2023-01-07T00:14:31.879Z,1.45
2023-01-07T00:16:58.364Z,1.40
2023-01-07T00:19:24.824Z,1.20
2023-01-07T00:21:51.165Z,1.38
2023-01-07T00:24:18.480Z,1.60
2023-01-07T00:26:44.971Z,1.30
2023-01-07T00:29:11.439Z,1.50
2023-01-07T00:31:39.127Z,1.40
2023-01-07T00:34:05.892Z,1.27
2023-01-07T00:36:37.564Z,1.50
2023-01-07T00:39:06.104Z,1.23
2023-01-07T00:41:32.682Z,1.30
2023-01-07T00:43:59.120Z,1.17
2023-01-07T00:46:26.296Z,1.20
2023-01-07T00:48:52.652Z,1.25
2023-01-07T00:51:19.293Z,1.30
2023-01-07T00:53:45.866Z,1.45
2023-01-07T00:56:13.853Z,1.23
2023-01-07T00:58:40.566Z,1.27
2023-01-07T01:01:07.264Z,1.48
2023-01-07T01:03:34.255Z,1.25
2023-01-07T01:06:06.237Z,1.15
2023-01-07T01:08:32.638Z,1.45
2023-01-07T01:11:02.983Z,1.45
2023-01-07T01:13:29.471Z,1.30
2023-01-07T01:15:56.936Z,1.55
2023-01-07T01:18:23.506Z,1.25
2023-01-07T01:20:49.917Z,1.67
2023-01-07T01:23:19.101Z,1.15
2023-01-07T01:25:45.435Z,1.20
2023-01-07T01:28:14.145Z,1.30
2023-01-07T01:30:41.098Z,1.17
2023-01-07T01:33:08.937Z,1.50
2023-01-07T01:35:39.200Z,1.35
2023-01-07T01:38:05.522Z,1.00
2023-01-07T01:40:32.564Z,1.73
2023-01-07T01:43:00.464Z,1.45
2023-01-07T01:45:27.680Z,1.63
2023-01-07T01:47:59.434Z,1.35
2023-01-07T01:50:28.810Z,1.27
2023-01-07T01:52:59.696Z,1.30
2023-01-07T01:55:29.176Z,0.90
2023-01-07T01:57:58.033Z,1.40
2023-01-07T02:00:27.095Z,1.20
2023-01-07T02:02:56.828Z,0.95
2023-01-07T02:05:28.446Z,1.10
2023-01-07T02:07:54.831Z,1.20
2023-01-07T02:10:22.828Z,1.40
2023-01-07T02:12:49.863Z,1.23
2023-01-07T02:15:36.110Z,1.15
2023-01-07T02:18:21.635Z,1.20
2023-01-07T02:20:54.620Z,1.10
2023-01-07T02:23:40.364Z,1.02
2023-01-07T02:26:15.933Z,1.50
2023-01-07T02:28:52.279Z,1.15
2023-01-07T02:31:18.731Z,1.10
2023-01-07T02:33:54.836Z,1.13
2023-01-07T02:36:40.308Z,1.10
2023-01-07T02:39:13.090Z,1.10
2023-01-07T02:41:58.298Z,1.10
2023-01-07T02:44:45.769Z,1.00
2023-01-07T02:47:16.776Z,1.20
2023-01-07T02:49:43.140Z,1.30
2023-01-07T02:52:23.169Z,1.00
2023-01-07T02:55:09.775Z,1.90
2023-01-07T02:57:55.466Z,1.13
2023-01-07T03:00:32.029Z,1.17
2023-01-07T03:03:08.399Z,1.00
2023-01-07T03:05:41.720Z,1.17
2023-01-07T03:08:17.192Z,0.97
2023-01-07T03:10:52.421Z,1.00
2023-01-07T03:13:23.199Z,1.05
2023-01-07T03:16:05.032Z,1.15
2023-01-07T03:18:34.211Z,1.08
2023-01-07T03:21:05.327Z,1.05
2023-01-07T03:23:33.834Z,0.90
2023-01-07T03:26:01.831Z,1.00
2023-01-07T03:28:31.389Z,1.02
2023-01-07T03:30:59.458Z,1.10
2023-01-07T03:33:30.376Z,1.38
2023-01-07T03:35:58.569Z,1.23
2023-01-07T03:38:26.171Z,1.00
2023-01-07T03:40:53.330Z,1.30
2023-01-07T03:43:23.062Z,1.10
2023-01-07T03:45:54.577Z,0.93
2023-01-07T03:48:20.996Z,1.30
2023-01-07T03:50:48.761Z,1.27
2023-01-07T03:53:15.114Z,0.90
2023-01-07T03:55:44.787Z,1.30
2023-01-07T03:58:11.122Z,1.00
2023-01-07T04:00:37.490Z,0.95
2023-01-07T04:03:13.446Z,0.90
2023-01-07T04:05:43.226Z,0.80
2023-01-07T04:08:10.643Z,1.13
2023-01-07T04:10:38.932Z,1.35
2023-01-07T04:13:05.884Z,1.00
2023-01-07T04:15:32.377Z,1.05
2023-01-07T04:17:58.837Z,0.80
2023-01-07T04:20:25.716Z,0.90
2023-01-07T04:22:53.257Z,1.02
2023-01-07T04:25:19.983Z,1.30
2023-01-07T04:27:47.231Z,0.90
2023-01-07T04:30:13.986Z,0.77
2023-01-07T04:32:40.353Z,0.90
2023-01-07T04:35:06.923Z,1.30
2023-01-07T04:37:33.395Z,1.00
2023-01-07T04:40:00.683Z,1.10
2023-01-07T04:42:29.013Z,1.00
2023-01-07T04:44:56.221Z,1.02
2023-01-07T04:47:22.652Z,0.88
2023-01-07T04:49:49.845Z,0.70
2023-01-07T04:52:16.685Z,0.70
2023-01-07T04:54:43.134Z,0.90
2023-01-07T04:57:10.062Z,0.70
2023-01-07T04:59:37.188Z,0.93
2023-01-07T05:02:03.841Z,0.73
2023-01-07T05:04:30.691Z,0.70
2023-01-07T05:06:57.528Z,0.63
2023-01-07T05:09:25.447Z,1.10
2023-01-07T05:11:51.963Z,0.98
2023-01-07T05:14:19.172Z,0.95
2023-01-07T05:16:49.687Z,1.10
2023-01-07T05:19:16.448Z,0.70
2023-01-07T05:21:46.617Z,0.55
2023-01-07T05:24:13.327Z,0.60
2023-01-07T05:26:40.562Z,0.70
2023-01-07T05:29:07.267Z,0.63
2023-01-07T05:31:34.015Z,0.77
2023-01-07T05:34:00.472Z,0.80
2023-01-07T05:36:28.159Z,0.70
2023-01-07T05:38:55.870Z,0.60
2023-01-07T05:41:22.226Z,0.80
2023-01-07T05:43:48.582Z,1.25
2023-01-07T05:46:15.478Z,0.60
2023-01-07T05:48:46.201Z,0.85
2023-01-07T05:51:12.553Z,0.70
2023-01-07T05:53:38.916Z,0.80
2023-01-07T05:56:05.375Z,18.58
2023-01-07T05:58:31.824Z,10.15
2023-01-07T06:00:58.189Z,0.80
2023-01-07T06:03:24.630Z,0.80
2023-01-07T06:05:51.040Z,0.52
2023-01-07T06:08:20.284Z,1.00
2023-01-07T06:10:46.689Z,0.70
2023-01-07T06:13:13.013Z,1.40
2023-01-07T06:15:39.428Z,0.88
2023-01-07T06:18:05.833Z,0.80
2023-01-07T06:20:34.594Z,1.20
2023-01-07T06:23:02.720Z,1.20
2023-01-07T06:25:29.305Z,3.92
2023-01-07T06:27:58.683Z,1.00
2023-01-07T06:30:25.013Z,0.93
2023-01-07T06:32:51.413Z,0.80
2023-01-07T06:35:19.661Z,0.85
2023-01-07T06:37:46.013Z,0.77
2023-01-07T06:40:12.790Z,0.88
2023-01-07T06:42:39.165Z,0.90
2023-01-07T06:45:05.726Z,0.63
2023-01-07T06:47:32.123Z,0.70
2023-01-07T06:49:58.606Z,0.82
2023-01-07T06:52:25.076Z,0.88
2023-01-07T06:54:51.506Z,0.70
2023-01-07T06:57:17.966Z,0.90
2023-01-07T06:59:44.253Z,0.70
2023-01-07T07:02:21.203Z,0.90
2023-01-07T07:04:48.185Z,0.73
2023-01-07T07:07:14.779Z,0.65
2023-01-07T07:09:41.125Z,0.90
2023-01-07T07:12:07.753Z,0.65
2023-01-07T07:14:34.157Z,0.70
2023-01-07T07:17:00.514Z,0.90
2023-01-07T07:19:26.868Z,0.70
2023-01-07T07:21:53.435Z,0.98
2023-01-07T07:24:20.028Z,0.93
2023-01-07T07:26:53.224Z,0.90
2023-01-07T07:29:21.666Z,1.08
2023-01-07T07:31:48.121Z,4.25
2023-01-07T07:34:14.436Z,1.70
2023-01-07T07:36:40.782Z,1.10
2023-01-07T07:39:07.079Z,1.08
2023-01-07T07:41:36.413Z,1.30
2023-01-07T07:44:07.335Z,0.98
2023-01-07T07:46:33.836Z,1.35
2023-01-07T07:49:00.253Z,0.90
2023-01-07T07:51:26.639Z,1.33
2023-01-07T07:53:52.952Z,1.42
2023-01-07T07:56:19.270Z,1.20
2023-01-07T07:58:45.590Z,1.50
2023-01-07T08:01:12.335Z,1.60
2023-01-07T08:03:42.868Z,2.50
2023-01-07T08:06:09.805Z,1.63
2023-01-07T08:08:36.361Z,2.20
2023-01-07T08:11:04.147Z,1.40
2023-01-07T08:13:32.112Z,1.58
2023-01-07T08:15:58.597Z,1.80
2023-01-07T08:18:25.273Z,2.45
2023-01-07T08:20:55.723Z,2.40
2023-01-07T08:23:22.098Z,2.50
2023-01-07T08:25:48.534Z,2.45
2023-01-07T08:28:14.864Z,2.22
2023-01-07T08:30:42.299Z,1.45
2023-01-07T08:33:08.732Z,1.30
2023-01-07T08:35:41.351Z,2.22
2023-01-07T08:38:08.589Z,2.30
2023-01-07T08:40:35.489Z,2.00
2023-01-07T08:43:02.769Z,1.50
2023-01-07T08:45:29.791Z,1.45
2023-01-07T08:48:02.661Z,1.65
2023-01-07T08:50:33.075Z,2.30
2023-01-07T08:52:59.531Z,1.40
2023-01-07T08:55:25.909Z,1.30
2023-01-07T08:57:55.078Z,1.23
2023-01-07T09:00:22.230Z,1.38
2023-01-07T09:02:49.066Z,1.30
2023-01-07T09:05:18.967Z,1.35
2023-01-07T09:07:45.323Z,1.42
2023-01-07T09:10:12.925Z,1.83
2023-01-07T09:12:40.048Z,1.45
2023-01-07T09:15:07.122Z,1.10
2023-01-07T09:17:33.494Z,1.60
2023-01-07T09:20:03.441Z,1.30
2023-01-07T09:22:33.807Z,2.13
2023-01-07T09:25:00.157Z,1.70
2023-01-07T09:27:26.873Z,1.42
2023-01-07T09:29:53.980Z,1.63
2023-01-07T09:32:21.230Z,2.20
2023-01-07T09:34:47.596Z,1.50
2023-01-07T09:37:13.938Z,1.50
2023-01-07T09:39:40.223Z,1.15
2023-01-07T09:42:23.080Z,1.00
2023-01-07T09:44:58.659Z,1.33
2023-01-07T09:47:26.562Z,2.03
2023-01-07T09:49:55.500Z,1.50
2023-01-07T09:52:30.270Z,1.60
2023-01-07T09:55:00.510Z,1.55
2023-01-07T09:57:27.879Z,1.27
2023-01-07T09:59:54.263Z,1.42
2023-01-07T10:02:45.540Z,1.00
2023-01-07T10:05:25.981Z,1.33
2023-01-07T10:08:31.839Z,1.20
2023-01-07T10:11:02.605Z,1.20
2023-01-07T10:13:40.539Z,1.60
2023-01-07T10:16:09.787Z,1.27
2023-01-07T10:18:42.824Z,1.30
2023-01-07T10:21:21.647Z,1.03
2023-01-07T10:23:51.869Z,1.33
2023-01-07T10:26:30.038Z,1.50
2023-01-07T10:28:59.313Z,1.08
2023-01-07T10:31:27.083Z,1.98
2023-01-07T10:33:55.621Z,1.30
2023-01-07T10:36:30.685Z,1.50
2023-01-07T10:38:56.962Z,1.40
2023-01-07T10:41:26.929Z,1.70
2023-01-07T10:43:59.995Z,2.00
2023-01-07T10:46:34.077Z,1.37
2023-01-07T10:49:12.360Z,1.25
2023-01-07T10:51:47.265Z,1.25
2023-01-07T10:54:22.748Z,1.60
2023-01-07T10:56:54.618Z,1.40
2023-01-07T10:59:21.739Z,1.30
2023-01-07T11:01:52.170Z,1.20
2023-01-07T11:04:18.855Z,1.38
2023-01-07T11:06:45.224Z,1.67
2023-01-07T11:09:16.707Z,1.40
2023-01-07T11:11:43.847Z,2.00
2023-01-07T11:14:19.509Z,1.92
2023-01-07T11:17:15.361Z,1.60
2023-01-07T11:19:43.483Z,1.90
2023-01-07T11:22:28.018Z,1.33
2023-01-07T11:24:55.138Z,1.70
2023-01-07T11:27:23.527Z,1.83
2023-01-07T11:30:04.521Z,1.45
2023-01-07T11:32:32.193Z,1.58
2023-01-07T11:35:00.819Z,1.50
2023-01-07T11:37:31.304Z,1.40
2023-01-07T11:39:58.946Z,1.38
2023-01-07T11:42:40.642Z,1.38
2023-01-07T11:45:18.462Z,1.40
2023-01-07T11:48:07.968Z,1.52
2023-01-07T11:50:53.085Z,1.92
2023-01-07T11:53:19.365Z,2.22
2023-01-07T11:55:59.951Z,2.10
2023-01-07T11:58:29.577Z,2.33
2023-01-07T12:01:05.491Z,2.63
2023-01-07T12:03:31.939Z,3.60
2023-01-07T12:06:03.375Z,2.10
2023-01-07T12:08:29.857Z,2.35
2023-01-07T12:10:56.901Z,2.80
2023-01-07T12:13:25.491Z,2.05
2023-01-07T12:16:12.095Z,1.88
2023-01-07T12:18:47.636Z,2.20
2023-01-07T12:21:28.957Z,2.10
2023-01-07T12:24:06.739Z,2.58
2023-01-07T12:26:38.992Z,1.95
2023-01-07T12:29:15.036Z,2.33
2023-01-07T12:31:41.455Z,5.53
2023-01-07T12:34:19.378Z,2.10
2023-01-07T12:36:52.851Z,7.25
2023-01-07T12:39:22.837Z,11.10
2023-01-07T12:41:55.740Z,4.22
2023-01-07T12:44:22.446Z,4.40
2023-01-07T12:47:32.432Z,2.70
2023-01-07T12:49:58.052Z,3.13
2023-01-07T12:52:24.771Z,2.50
2023-01-07T12:54:57.712Z,3.00
2023-01-07T12:57:34.917Z,2.90
2023-01-07T13:00:04.637Z,3.42
2023-01-07T13:02:45.007Z,2.50
2023-01-07T13:05:18.004Z,2.10
2023-01-07T13:07:51.745Z,2.25
2023-01-07T13:10:25.013Z,3.35
2023-01-07T13:12:54.362Z,2.78
2023-01-07T13:15:22.346Z,2.15
2023-01-07T13:17:53.772Z,2.17
2023-01-07T13:20:38.933Z,2.85
2023-01-07T13:23:05.545Z,2.50
2023-01-07T13:25:35.817Z,2.67
2023-01-07T13:28:17.573Z,2.60
2023-01-07T13:31:02.765Z,2.40
2023-01-07T13:33:43.871Z,2.33
2023-01-07T13:36:16.343Z,2.60
2023-01-07T13:39:00.444Z,2.50
2023-01-07T13:41:26.753Z,2.58
2023-01-07T13:44:01.986Z,2.13
2023-01-07T13:46:33.392Z,2.50
2023-01-07T13:49:00.169Z,2.58
2023-01-07T13:51:31.280Z,2.58
2023-01-07T13:53:57.786Z,2.65
2023-01-07T13:56:24.081Z,2.65
2023-01-07T13:58:55.599Z,2.75
2023-01-07T14:01:34.604Z,2.60
2023-01-07T14:04:20.961Z,2.90
2023-01-07T14:06:51.506Z,2.97
2023-01-07T14:09:24.792Z,2.30
2023-01-07T14:12:10.883Z,2.30
2023-01-07T14:14:38.216Z,2.58
2023-01-07T14:17:23.640Z,2.47
2023-01-07T14:20:08.921Z,3.00
2023-01-07T14:22:46.399Z,2.85
2023-01-07T14:25:12.729Z,2.75
2023-01-07T14:27:57.716Z,3.85
2023-01-07T14:30:43.585Z,3.75
2023-01-07T14:33:16.442Z,3.42
2023-01-07T14:35:43.143Z,2.30
2023-01-07T14:38:28.255Z,2.80
2023-01-07T14:41:03.887Z,3.10
2023-01-07T14:43:45.554Z,2.88
2023-01-07T14:46:21.055Z,2.63
2023-01-07T14:49:14.728Z,2.70
2023-01-07T14:51:41.028Z,3.10
2023-01-07T14:54:16.452Z,2.22
2023-01-07T14:56:49.314Z,3.35
2023-01-07T14:59:25.329Z,2.85
2023-01-07T15:02:10.667Z,3.03
2023-01-07T15:04:40.082Z,2.60
2023-01-07T15:07:13.368Z,2.67
2023-01-07T15:10:01.482Z,2.90
2023-01-07T15:12:48.501Z,2.60
2023-01-07T15:15:54.849Z,2.70
2023-01-07T15:18:21.902Z,3.35
2023-01-07T15:20:48.356Z,2.80
2023-01-07T15:23:23.270Z,3.72
2023-01-07T15:25:55.356Z,3.05
2023-01-07T15:28:33.696Z,3.75
2023-01-07T15:31:07.400Z,4.25
2023-01-07T15:33:36.772Z,3.63
2023-01-07T15:36:04.588Z,3.63
2023-01-07T15:38:42.213Z,3.25
2023-01-07T15:41:25.588Z,3.78
2023-01-07T15:43:52.441Z,3.13
2023-01-07T15:46:19.917Z,3.70
2023-01-07T15:49:02.714Z,3.47
2023-01-07T15:51:31.263Z,3.20
2023-01-07T15:53:57.601Z,3.20
2023-01-07T15:56:23.950Z,3.38
2023-01-07T15:58:50.279Z,3.47
2023-01-07T16:01:18.188Z,3.70
2023-01-07T16:03:45.758Z,3.78
2023-01-07T16:06:30.428Z,3.83
2023-01-07T16:09:02.935Z,3.70
2023-01-07T16:11:30.243Z,3.38
2023-01-07T16:13:57.657Z,4.40
2023-01-07T16:16:24.800Z,4.60
2023-01-07T16:18:55.349Z,4.20
2023-01-07T16:21:22.589Z,5.07
2023-01-07T16:23:49.034Z,4.35
2023-01-07T16:26:17.234Z,4.18
2023-01-07T16:28:51.752Z,3.45
2023-01-07T16:31:19.613Z,4.70
2023-01-07T16:33:47.298Z,5.20
2023-01-07T16:36:15.049Z,3.90
2023-01-07T16:38:42.116Z,3.90
2023-01-07T16:41:15.960Z,3.53
2023-01-07T16:43:43.672Z,4.40
2023-01-07T16:46:26.846Z,3.50
2023-01-07T16:49:11.412Z,3.63
2023-01-07T16:51:38.330Z,3.60
2023-01-07T16:54:23.485Z,3.72
2023-01-07T16:56:51.528Z,4.00
2023-01-07T16:59:19.194Z,4.15
2023-01-07T17:01:45.759Z,3.53
2023-01-07T17:04:19.859Z,3.75
2023-01-07T17:06:46.258Z,3.95
2023-01-07T17:09:23.972Z,4.03
2023-01-07T17:11:51.766Z,4.00
2023-01-07T17:14:33.279Z,3.55
2023-01-07T17:17:08.931Z,3.67
2023-01-07T17:19:39.523Z,3.88
2023-01-07T17:22:24.695Z,4.40
2023-01-07T17:24:51.053Z,3.58
2023-01-07T17:27:20.725Z,4.35
2023-01-07T17:29:47.739Z,4.45
2023-01-07T17:32:14.304Z,4.35
2023-01-07T17:34:40.614Z,4.20
2023-01-07T17:37:12.228Z,5.28
2023-01-07T17:39:38.833Z,11.60
2023-01-07T17:42:29.615Z,5.82
2023-01-07T17:44:55.948Z,4.20
2023-01-07T17:47:22.824Z,4.18
2023-01-07T17:49:49.241Z,3.70
2023-01-07T17:52:15.542Z,5.03
2023-01-07T17:54:44.035Z,3.92
2023-01-07T17:57:11.847Z,3.72
2023-01-07T17:59:38.262Z,4.50
2023-01-07T18:02:06.256Z,4.40
2023-01-07T18:04:32.654Z,4.10
2023-01-07T18:06:58.988Z,4.20
2023-01-07T18:09:25.327Z,4.82
2023-01-07T18:12:10.349Z,4.47
2023-01-07T18:14:36.723Z,3.92
2023-01-07T18:17:03.076Z,4.93
2023-01-07T18:19:29.451Z,4.57
2023-01-07T18:21:55.805Z,3.85
2023-01-07T18:24:22.430Z,3.88
2023-01-07T18:26:49.164Z,3.75
2023-01-07T18:29:15.503Z,3.38
2023-01-07T18:31:43.053Z,4.00
2023-01-07T18:34:09.972Z,4.15
2023-01-07T18:36:36.950Z,3.95
2023-01-07T18:39:03.990Z,3.90
2023-01-07T18:41:32.114Z,4.20
2023-01-07T18:43:58.632Z,3.42
2023-01-07T18:46:24.927Z,4.30
2023-01-07T18:48:51.288Z,3.92
2023-01-07T18:51:17.622Z,4.40
2023-01-07T18:53:43.975Z,3.50
2023-01-07T18:56:11.794Z,3.58
2023-01-07T18:58:38.781Z,3.97
2023-01-07T19:01:05.660Z,3.30
2023-01-07T19:03:32.134Z,4.13
2023-01-07T19:06:01.348Z,3.55
2023-01-07T19:08:27.786Z,3.78
2023-01-07T19:10:54.231Z,3.80
2023-01-07T19:13:21.178Z,4.20
2023-01-07T19:15:47.503Z,3.35
2023-01-07T19:18:13.917Z,3.30
2023-01-07T19:20:40.296Z,4.07
2023-01-07T19:23:06.733Z,3.03
2023-01-07T19:25:33.143Z,4.05
2023-01-07T19:27:59.817Z,3.92
2023-01-07T19:30:26.278Z,4.30
2023-01-07T19:32:53.196Z,4.47
2023-01-07T19:35:19.750Z,8.30
2023-01-07T19:37:46.106Z,8.25
2023-01-07T19:40:12.872Z,7.45
2023-01-07T19:42:39.214Z,3.33
2023-01-07T19:45:06.558Z,2.92
2023-01-07T19:47:32.945Z,3.15
2023-01-07T19:49:59.276Z,3.25
2023-01-07T19:52:25.946Z,3.38
2023-01-07T19:54:52.336Z,3.33
2023-01-07T19:57:18.837Z,3.25
2023-01-07T19:59:45.158Z,3.40
2023-01-07T20:02:13.728Z,3.38
2023-01-07T20:04:40.680Z,3.50
2023-01-07T20:07:06.997Z,3.05
2023-01-07T20:09:34.403Z,3.20
2023-01-07T20:12:00.821Z,3.22
2023-01-07T20:14:27.122Z,3.35
2023-01-07T20:16:53.564Z,3.35
2023-01-07T20:19:19.965Z,2.75
2023-01-07T20:21:46.635Z,3.22
2023-01-07T20:24:13.475Z,3.58
2023-01-07T20:26:39.943Z,3.40
2023-01-07T20:29:06.400Z,3.67
2023-01-07T20:31:32.835Z,3.67
2023-01-07T20:34:00.031Z,3.72
2023-01-07T20:36:28.186Z,3.30
2023-01-07T20:38:54.653Z,2.78
2023-01-07T20:41:22.201Z,3.78
2023-01-07T20:43:52.231Z,3.47
2023-01-07T20:46:18.724Z,3.60
2023-01-07T20:48:45.180Z,3.35
2023-01-07T20:51:12.627Z,3.22
2023-01-07T20:53:39.189Z,3.05
2023-01-07T20:56:05.793Z,3.13
2023-01-07T20:58:33.772Z,3.50
2023-01-07T21:01:04.270Z,2.90
2023-01-07T21:03:30.760Z,2.97
2023-01-07T21:05:57.816Z,3.40
2023-01-07T21:08:24.451Z,3.55
2023-01-07T21:10:50.830Z,3.60
2023-01-07T21:13:17.307Z,3.75
2023-01-07T21:15:43.659Z,3.92
2023-01-07T21:18:09.975Z,3.95
2023-01-07T21:20:36.339Z,4.38
2023-01-07T21:23:02.635Z,5.03
2023-01-07T21:25:29.042Z,4.10
2023-01-07T21:27:55.369Z,3.50
2023-01-07T21:30:21.720Z,3.47
2023-01-07T21:32:48.062Z,3.83
2023-01-07T21:35:14.535Z,3.42
2023-01-07T21:37:40.923Z,3.30
2023-01-07T21:40:07.573Z,3.30
2023-01-07T21:42:36.777Z,3.20
2023-01-07T21:45:03.601Z,2.92
2023-01-07T21:47:30.019Z,2.65
2023-01-07T21:49:56.520Z,3.97
2023-01-07T21:52:22.853Z,4.40
2023-01-07T21:54:51.893Z,3.75
2023-01-07T21:57:19.023Z,3.50
2023-01-07T21:59:45.474Z,3.58
2023-01-07T22:02:12.612Z,3.63
2023-01-07T22:04:42.303Z,3.40
2023-01-07T22:07:13.202Z,2.65
2023-01-07T22:09:39.553Z,2.95
2023-01-07T22:12:05.895Z,3.28
2023-01-07T22:14:32.249Z,3.58
2023-01-07T22:16:58.585Z,3.20
2023-01-07T22:19:25.920Z,3.17
2023-01-07T22:21:52.739Z,2.65
2023-01-07T22:24:19.225Z,3.22
2023-01-07T22:26:45.720Z,3.28
2023-01-07T22:29:12.443Z,3.05
2023-01-07T22:31:38.946Z,2.83
2023-01-07T22:34:05.906Z,2.80
2023-01-07T22:36:32.378Z,2.67
2023-01-07T22:39:01.800Z,3.53
2023-01-07T22:41:28.728Z,3.08
2023-01-07T22:43:55.326Z,2.97
2023-01-07T22:46:23.580Z,3.08
2023-01-07T22:48:50.553Z,3.53
2023-01-07T22:51:24.843Z,3.53
2023-01-07T22:53:53.966Z,3.08
2023-01-07T22:56:20.724Z,2.90
2023-01-07T22:58:47.081Z,3.00
2023-01-07T23:01:14.816Z,3.40
2023-01-07T23:03:42.122Z,3.30
2023-01-07T23:06:09.401Z,3.00
2023-01-07T23:08:36.234Z,3.40
2023-01-07T23:11:02.860Z,3.05
2023-01-07T23:13:29.210Z,3.00
2023-01-07T23:15:55.671Z,3.00
2023-01-07T23:18:22.410Z,3.13
2023-01-07T23:20:51.689Z,3.28
2023-01-07T23:23:18.144Z,2.95
2023-01-07T23:25:48.478Z,3.13
2023-01-07T23:28:15.263Z,3.15
2023-01-07T23:30:41.740Z,2.90
2023-01-07T23:33:08.529Z,3.25
2023-01-07T23:35:35.404Z,2.88
2023-01-07T23:38:01.951Z,3.38
2023-01-07T23:40:28.394Z,2.58
2023-01-07T23:42:56.257Z,2.67
2023-01-07T23:45:24.004Z,3.00
2023-01-07T23:47:50.328Z,3.13
2023-01-07T23:50:16.720Z,2.97
2023-01-07T23:52:43.292Z,3.00
2023-01-07T23:55:10.459Z,3.28
2023-01-07T23:57:36.771Z,3.20
